sensor_id;sensor_type;location;lat;lon;timestamp;P1;durP1;ratioP1;P2;durP2;ratioP2
11490;SDS011;5802;52.832;4.758;2023-03-20T00:01:46;4.80;;;1.10;;
11490;SDS011;5802;52.832;4.758;2023-03-20T00:04:14;1.38;;;0.82;;
11490;SDS011;5802;52.832;4.758;2023-03-20T00:06:40;2.15;;;0.98;;
11490;SDS011;5802;52.832;4.758;2023-03-20T00:09:07;1.67;;;0.80;;
11490;SDS011;5802;52.832;4.758;2023-03-20T00:11:38;2.22;;;1.00;;
11490;SDS011;5802;52.832;4.758;2023-03-20T00:14:11;2.08;;;1.00;;
11490;SDS011;5802;52.832;4.758;2023-03-20T00:16:42;1.73;;;0.75;;
11490;SDS011;5802;52.832;4.758;2023-03-20T00:19:12;3.03;;;1.00;;
11490;SDS011;5802;52.832;4.758;2023-03-20T00:21:41;2.78;;;0.95;;
11490;SDS011;5802;52.832;4.758;2023-03-20T00:24:09;1.52;;;0.80;;
11490;SDS011;5802;52.832;4.758;2023-03-20T00:26:36;1.30;;;0.80;;
11490;SDS011;5802;52.832;4.758;2023-03-20T00:29:03;1.25;;;0.90;;
11490;SDS011;5802;52.832;4.758;2023-03-20T00:31:32;1.77;;;0.93;;
11490;SDS011;5802;52.832;4.758;2023-03-20T00:34:02;0.52;;;0.43;;
11490;SDS011;5802;52.832;4.758;2023-03-20T00:36:31;1.65;;;0.80;;
11490;SDS011;5802;52.832;4.758;2023-03-20T00:38:57;1.50;;;0.73;;
11490;SDS011;5802;52.832;4.758;2023-03-20T00:41:26;1.95;;;0.98;;
11490;SDS011;5802;52.832;4.758;2023-03-20T00:43:56;2.45;;;0.60;;
11490;SDS011;5802;52.832;4.758;2023-03-20T00:46:25;1.00;;;0.77;;
11490;SDS011;5802;52.832;4.758;2023-03-20T00:48:52;1.98;;;0.85;;
11490;SDS011;5802;52.832;4.758;2023-03-20T00:51:21;2.67;;;0.85;;
11490;SDS011;5802;52.832;4.758;2023-03-20T00:53:48;5.88;;;1.15;;
11490;SDS011;5802;52.832;4.758;2023-03-20T00:56:24;3.92;;;0.93;;
11490;SDS011;5802;52.832;4.758;2023-03-20T00:58:55;4.00;;;0.90;;
11490;SDS011;5802;52.832;4.758;2023-03-20T01:01:22;3.10;;;0.98;;
11490;SDS011;5802;52.832;4.758;2023-03-20T01:03:49;2.60;;;0.90;;
11490;SDS011;5802;52.832;4.758;2023-03-20T01:06:16;1.77;;;0.70;;
11490;SDS011;5802;52.832;4.758;2023-03-20T01:08:45;1.33;;;0.73;;
11490;SDS011;5802;52.832;4.758;2023-03-20T01:11:12;1.23;;;0.70;;
11490;SDS011;5802;52.832;4.758;2023-03-20T01:13:41;1.13;;;0.70;;
11490;SDS011;5802;52.832;4.758;2023-03-20T01:16:12;2.22;;;0.80;;
11490;SDS011;5802;52.832;4.758;2023-03-20T01:18:44;3.30;;;0.85;;
11490;SDS011;5802;52.832;4.758;2023-03-20T01:21:11;1.73;;;1.05;;
11490;SDS011;5802;52.832;4.758;2023-03-20T01:23:38;2.88;;;0.90;;
11490;SDS011;5802;52.832;4.758;2023-03-20T01:26:08;1.42;;;0.73;;
11490;SDS011;5802;52.832;4.758;2023-03-20T01:28:46;6.35;;;1.20;;
11490;SDS011;5802;52.832;4.758;2023-03-20T01:31:13;2.08;;;0.90;;
11490;SDS011;5802;52.832;4.758;2023-03-20T01:33:41;1.05;;;0.65;;
11490;SDS011;5802;52.832;4.758;2023-03-20T01:36:08;2.25;;;0.93;;
11490;SDS011;5802;52.832;4.758;2023-03-20T01:38:36;2.80;;;0.80;;
11490;SDS011;5802;52.832;4.758;2023-03-20T01:41:05;2.00;;;0.77;;
11490;SDS011;5802;52.832;4.758;2023-03-20T01:43:36;1.05;;;0.70;;
11490;SDS011;5802;52.832;4.758;2023-03-20T01:46:03;1.60;;;1.00;;
11490;SDS011;5802;52.832;4.758;2023-03-20T01:48:55;2.13;;;0.80;;
11490;SDS011;5802;52.832;4.758;2023-03-20T01:51:25;1.77;;;0.63;;
11490;SDS011;5802;52.832;4.758;2023-03-20T01:53:53;2.78;;;0.75;;
11490;SDS011;5802;52.832;4.758;2023-03-20T01:56:25;1.45;;;0.60;;
11490;SDS011;5802;52.832;4.758;2023-03-20T01:58:55;1.67;;;0.70;;
11490;SDS011;5802;52.832;4.758;2023-03-20T02:01:25;2.95;;;0.90;;
11490;SDS011;5802;52.832;4.758;2023-03-20T02:03:53;1.95;;;0.80;;
11490;SDS011;5802;52.832;4.758;2023-03-20T02:06:20;1.35;;;0.80;;
11490;SDS011;5802;52.832;4.758;2023-03-20T02:08:50;3.42;;;0.80;;
11490;SDS011;5802;52.832;4.758;2023-03-20T02:11:18;2.58;;;0.75;;
11490;SDS011;5802;52.832;4.758;2023-03-20T02:13:48;4.53;;;1.10;;
11490;SDS011;5802;52.832;4.758;2023-03-20T02:16:17;3.33;;;0.90;;
11490;SDS011;5802;52.832;4.758;2023-03-20T02:18:45;2.50;;;1.00;;
11490;SDS011;5802;52.832;4.758;2023-03-20T02:21:35;1.42;;;0.77;;
11490;SDS011;5802;52.832;4.758;2023-03-20T02:24:33;1.27;;;0.80;;
11490;SDS011;5802;52.832;4.758;2023-03-20T02:27:29;1.30;;;0.70;;
11490;SDS011;5802;52.832;4.758;2023-03-20T02:33:17;1.00;;;0.80;;
11490;SDS011;5802;52.832;4.758;2023-03-20T02:36:02;1.42;;;0.70;;
11490;SDS011;5802;52.832;4.758;2023-03-20T02:39:07;1.13;;;0.80;;
11490;SDS011;5802;52.832;4.758;2023-03-20T02:41:50;2.40;;;0.52;;
11490;SDS011;5802;52.832;4.758;2023-03-20T02:44:23;0.90;;;0.60;;
11490;SDS011;5802;52.832;4.758;2023-03-20T02:46:59;2.08;;;0.82;;
11490;SDS011;5802;52.832;4.758;2023-03-20T02:49:36;1.67;;;0.80;;
11490;SDS011;5802;52.832;4.758;2023-03-20T02:52:15;1.40;;;0.80;;
11490;SDS011;5802;52.832;4.758;2023-03-20T02:54:48;1.38;;;0.70;;
11490;SDS011;5802;52.832;4.758;2023-03-20T02:57:22;2.08;;;0.90;;
11490;SDS011;5802;52.832;4.758;2023-03-20T02:59:58;2.25;;;0.93;;
11490;SDS011;5802;52.832;4.758;2023-03-20T03:02:31;1.02;;;0.60;;
11490;SDS011;5802;52.832;4.758;2023-03-20T03:05:01;1.63;;;0.93;;
11490;SDS011;5802;52.832;4.758;2023-03-20T03:07:32;1.92;;;0.82;;
11490;SDS011;5802;52.832;4.758;2023-03-20T03:10:02;1.30;;;0.70;;
11490;SDS011;5802;52.832;4.758;2023-03-20T03:12:33;1.65;;;0.73;;
11490;SDS011;5802;52.832;4.758;2023-03-20T03:15:03;1.20;;;0.77;;
11490;SDS011;5802;52.832;4.758;2023-03-20T03:17:38;2.03;;;0.98;;
11490;SDS011;5802;52.832;4.758;2023-03-20T03:20:11;1.42;;;0.70;;
11490;SDS011;5802;52.832;4.758;2023-03-20T03:22:44;2.70;;;0.82;;
11490;SDS011;5802;52.832;4.758;2023-03-20T03:25:12;2.13;;;0.70;;
11490;SDS011;5802;52.832;4.758;2023-03-20T03:27:40;1.83;;;0.90;;
11490;SDS011;5802;52.832;4.758;2023-03-20T03:30:09;2.25;;;0.70;;
11490;SDS011;5802;52.832;4.758;2023-03-20T03:32:45;2.28;;;0.82;;
11490;SDS011;5802;52.832;4.758;2023-03-20T03:35:15;1.60;;;0.77;;
11490;SDS011;5802;52.832;4.758;2023-03-20T03:37:46;1.08;;;0.80;;
11490;SDS011;5802;52.832;4.758;2023-03-20T03:40:23;1.52;;;0.85;;
11490;SDS011;5802;52.832;4.758;2023-03-20T03:42:59;1.23;;;0.73;;
11490;SDS011;5802;52.832;4.758;2023-03-20T03:45:29;2.17;;;0.93;;
11490;SDS011;5802;52.832;4.758;2023-03-20T03:48:02;1.13;;;0.70;;
11490;SDS011;5802;52.832;4.758;2023-03-20T03:50:33;2.15;;;1.00;;
11490;SDS011;5802;52.832;4.758;2023-03-20T03:53:03;3.78;;;0.75;;
11490;SDS011;5802;52.832;4.758;2023-03-20T03:55:36;1.33;;;0.50;;
11490;SDS011;5802;52.832;4.758;2023-03-20T03:58:07;1.58;;;0.77;;
11490;SDS011;5802;52.832;4.758;2023-03-20T04:00:36;1.67;;;0.82;;
11490;SDS011;5802;52.832;4.758;2023-03-20T04:03:07;1.27;;;0.90;;
11490;SDS011;5802;52.832;4.758;2023-03-20T04:05:36;1.55;;;0.80;;
11490;SDS011;5802;52.832;4.758;2023-03-20T04:08:07;3.38;;;0.85;;
11490;SDS011;5802;52.832;4.758;2023-03-20T04:10:35;1.10;;;0.80;;
11490;SDS011;5802;52.832;4.758;2023-03-20T04:13:02;2.38;;;0.85;;
11490;SDS011;5802;52.832;4.758;2023-03-20T04:15:29;1.63;;;0.82;;
11490;SDS011;5802;52.832;4.758;2023-03-20T04:17:55;2.17;;;0.90;;
11490;SDS011;5802;52.832;4.758;2023-03-20T04:20:22;0.77;;;0.63;;
11490;SDS011;5802;52.832;4.758;2023-03-20T04:22:49;1.80;;;0.98;;
11490;SDS011;5802;52.832;4.758;2023-03-20T04:25:16;1.27;;;0.70;;
11490;SDS011;5802;52.832;4.758;2023-03-20T04:27:46;1.05;;;0.77;;
11490;SDS011;5802;52.832;4.758;2023-03-20T04:30:13;2.13;;;0.88;;
11490;SDS011;5802;52.832;4.758;2023-03-20T04:32:40;1.38;;;0.57;;
11490;SDS011;5802;52.832;4.758;2023-03-20T04:35:07;2.15;;;0.80;;
11490;SDS011;5802;52.832;4.758;2023-03-20T04:37:34;1.17;;;0.70;;
11490;SDS011;5802;52.832;4.758;2023-03-20T04:40:01;2.00;;;0.70;;
11490;SDS011;5802;52.832;4.758;2023-03-20T04:42:28;1.10;;;0.75;;
11490;SDS011;5802;52.832;4.758;2023-03-20T04:44:56;1.63;;;0.80;;
11490;SDS011;5802;52.832;4.758;2023-03-20T04:47:23;1.85;;;0.85;;
11490;SDS011;5802;52.832;4.758;2023-03-20T04:49:49;1.00;;;0.70;;
11490;SDS011;5802;52.832;4.758;2023-03-20T04:52:16;2.03;;;0.90;;
11490;SDS011;5802;52.832;4.758;2023-03-20T04:54:43;2.05;;;0.70;;
11490;SDS011;5802;52.832;4.758;2023-03-20T04:57:09;2.05;;;0.90;;
11490;SDS011;5802;52.832;4.758;2023-03-20T04:59:36;1.33;;;1.00;;
11490;SDS011;5802;52.832;4.758;2023-03-20T05:02:04;1.95;;;0.88;;
11490;SDS011;5802;52.832;4.758;2023-03-20T05:04:31;1.65;;;0.77;;
11490;SDS011;5802;52.832;4.758;2023-03-20T05:06:58;1.25;;;0.80;;
11490;SDS011;5802;52.832;4.758;2023-03-20T05:09:24;1.73;;;1.02;;
11490;SDS011;5802;52.832;4.758;2023-03-20T05:11:51;1.30;;;0.90;;
11490;SDS011;5802;52.832;4.758;2023-03-20T05:14:18;1.20;;;0.90;;
11490;SDS011;5802;52.832;4.758;2023-03-20T05:16:44;1.80;;;0.85;;
11490;SDS011;5802;52.832;4.758;2023-03-20T05:19:12;2.20;;;1.08;;
11490;SDS011;5802;52.832;4.758;2023-03-20T05:21:39;1.52;;;1.10;;
11490;SDS011;5802;52.832;4.758;2023-03-20T05:24:06;2.35;;;0.98;;
11490;SDS011;5802;52.832;4.758;2023-03-20T05:26:33;1.73;;;0.90;;
11490;SDS011;5802;52.832;4.758;2023-03-20T05:28:59;2.50;;;1.10;;
11490;SDS011;5802;52.832;4.758;2023-03-20T05:31:26;3.13;;;0.80;;
11490;SDS011;5802;52.832;4.758;2023-03-20T05:33:53;3.35;;;1.00;;
11490;SDS011;5802;52.832;4.758;2023-03-20T05:36:21;3.22;;;1.15;;
11490;SDS011;5802;52.832;4.758;2023-03-20T05:38:47;2.00;;;0.77;;
11490;SDS011;5802;52.832;4.758;2023-03-20T05:41:14;1.83;;;1.00;;
11490;SDS011;5802;52.832;4.758;2023-03-20T05:43:41;2.25;;;0.90;;
11490;SDS011;5802;52.832;4.758;2023-03-20T05:46:07;6.35;;;1.30;;
11490;SDS011;5802;52.832;4.758;2023-03-20T05:48:34;1.27;;;0.77;;
11490;SDS011;5802;52.832;4.758;2023-03-20T05:51:01;2.95;;;1.05;;
11490;SDS011;5802;52.832;4.758;2023-03-20T05:53:29;1.98;;;0.90;;
11490;SDS011;5802;52.832;4.758;2023-03-20T05:55:56;1.33;;;0.75;;
11490;SDS011;5802;52.832;4.758;2023-03-20T05:58:22;5.07;;;1.10;;
11490;SDS011;5802;52.832;4.758;2023-03-20T06:00:49;1.80;;;0.90;;
11490;SDS011;5802;52.832;4.758;2023-03-20T06:03:16;2.42;;;1.08;;
11490;SDS011;5802;52.832;4.758;2023-03-20T06:05:43;2.50;;;0.95;;
11490;SDS011;5802;52.832;4.758;2023-03-20T06:08:09;1.35;;;0.85;;
11490;SDS011;5802;52.832;4.758;2023-03-20T06:10:37;1.75;;;0.90;;
11490;SDS011;5802;52.832;4.758;2023-03-20T06:13:04;1.88;;;0.80;;
11490;SDS011;5802;52.832;4.758;2023-03-20T06:15:31;1.65;;;1.10;;
11490;SDS011;5802;52.832;4.758;2023-03-20T06:17:57;1.17;;;0.77;;
11490;SDS011;5802;52.832;4.758;2023-03-20T06:20:25;3.55;;;1.30;;
11490;SDS011;5802;52.832;4.758;2023-03-20T06:22:51;1.40;;;0.93;;
11490;SDS011;5802;52.832;4.758;2023-03-20T06:25:18;2.42;;;0.70;;
11490;SDS011;5802;52.832;4.758;2023-03-20T06:27:47;1.88;;;1.00;;
11490;SDS011;5802;52.832;4.758;2023-03-20T06:30:14;2.33;;;1.00;;
11490;SDS011;5802;52.832;4.758;2023-03-20T06:32:41;1.77;;;1.05;;
11490;SDS011;5802;52.832;4.758;2023-03-20T06:35:08;3.03;;;1.10;;
11490;SDS011;5802;52.832;4.758;2023-03-20T06:37:36;2.90;;;1.17;;
11490;SDS011;5802;52.832;4.758;2023-03-20T06:40:03;3.20;;;1.00;;
11490;SDS011;5802;52.832;4.758;2023-03-20T06:42:31;2.15;;;1.00;;
11490;SDS011;5802;52.832;4.758;2023-03-20T06:44:59;4.25;;;1.30;;
11490;SDS011;5802;52.832;4.758;2023-03-20T06:47:26;2.78;;;1.30;;
11490;SDS011;5802;52.832;4.758;2023-03-20T06:49:52;2.95;;;1.00;;
11490;SDS011;5802;52.832;4.758;2023-03-20T06:52:19;2.58;;;1.00;;
11490;SDS011;5802;52.832;4.758;2023-03-20T06:54:46;2.40;;;1.10;;
11490;SDS011;5802;52.832;4.758;2023-03-20T06:57:15;2.22;;;0.80;;
11490;SDS011;5802;52.832;4.758;2023-03-20T06:59:42;4.63;;;1.25;;
11490;SDS011;5802;52.832;4.758;2023-03-20T07:02:10;2.85;;;1.10;;
11490;SDS011;5802;52.832;4.758;2023-03-20T07:04:37;2.28;;;1.00;;
11490;SDS011;5802;52.832;4.758;2023-03-20T07:07:04;2.78;;;1.20;;
11490;SDS011;5802;52.832;4.758;2023-03-20T07:09:30;1.50;;;1.05;;
11490;SDS011;5802;52.832;4.758;2023-03-20T07:11:57;2.63;;;1.10;;
11490;SDS011;5802;52.832;4.758;2023-03-20T07:14:24;7.05;;;1.15;;
11490;SDS011;5802;52.832;4.758;2023-03-20T07:16:51;2.08;;;1.17;;
11490;SDS011;5802;52.832;4.758;2023-03-20T07:19:20;1.70;;;1.15;;
11490;SDS011;5802;52.832;4.758;2023-03-20T07:21:46;5.28;;;1.10;;
11490;SDS011;5802;52.832;4.758;2023-03-20T07:24:14;1.48;;;0.90;;
11490;SDS011;5802;52.832;4.758;2023-03-20T07:26:41;1.30;;;0.90;;
11490;SDS011;5802;52.832;4.758;2023-03-20T07:29:08;2.67;;;1.02;;
11490;SDS011;5802;52.832;4.758;2023-03-20T07:31:35;2.25;;;1.00;;
11490;SDS011;5802;52.832;4.758;2023-03-20T07:34:01;1.98;;;1.08;;
11490;SDS011;5802;52.832;4.758;2023-03-20T07:36:29;2.47;;;1.10;;
11490;SDS011;5802;52.832;4.758;2023-03-20T07:38:56;2.08;;;1.17;;
11490;SDS011;5802;52.832;4.758;2023-03-20T07:41:23;4.72;;;1.17;;
11490;SDS011;5802;52.832;4.758;2023-03-20T07:43:49;3.85;;;1.50;;
11490;SDS011;5802;52.832;4.758;2023-03-20T07:46:16;1.48;;;1.08;;
11490;SDS011;5802;52.832;4.758;2023-03-20T07:48:43;2.38;;;1.20;;
11490;SDS011;5802;52.832;4.758;2023-03-20T07:51:10;2.65;;;1.30;;
11490;SDS011;5802;52.832;4.758;2023-03-20T07:53:38;1.83;;;1.10;;
11490;SDS011;5802;52.832;4.758;2023-03-20T07:56:05;2.92;;;1.20;;
11490;SDS011;5802;52.832;4.758;2023-03-20T07:58:40;2.63;;;1.20;;
11490;SDS011;5802;52.832;4.758;2023-03-20T08:01:06;4.32;;;1.40;;
11490;SDS011;5802;52.832;4.758;2023-03-20T08:03:33;3.45;;;1.30;;
11490;SDS011;5802;52.832;4.758;2023-03-20T08:06:00;3.45;;;1.30;;
11490;SDS011;5802;52.832;4.758;2023-03-20T08:08:28;1.85;;;1.10;;
11490;SDS011;5802;52.832;4.758;2023-03-20T08:10:56;2.88;;;1.30;;
11490;SDS011;5802;52.832;4.758;2023-03-20T08:13:22;3.38;;;1.50;;
11490;SDS011;5802;52.832;4.758;2023-03-20T08:15:49;3.63;;;1.27;;
11490;SDS011;5802;52.832;4.758;2023-03-20T08:18:16;2.22;;;1.52;;
11490;SDS011;5802;52.832;4.758;2023-03-20T08:20:44;3.83;;;1.38;;
11490;SDS011;5802;52.832;4.758;2023-03-20T08:23:11;3.25;;;1.38;;
11490;SDS011;5802;52.832;4.758;2023-03-20T08:25:37;2.42;;;1.15;;
11490;SDS011;5802;52.832;4.758;2023-03-20T08:28:05;3.10;;;1.13;;
11490;SDS011;5802;52.832;4.758;2023-03-20T08:30:32;2.60;;;1.40;;
11490;SDS011;5802;52.832;4.758;2023-03-20T08:32:59;2.13;;;1.30;;
11490;SDS011;5802;52.832;4.758;2023-03-20T08:35:26;3.20;;;1.40;;
11490;SDS011;5802;52.832;4.758;2023-03-20T08:37:53;7.43;;;1.70;;
11490;SDS011;5802;52.832;4.758;2023-03-20T08:40:20;2.67;;;1.35;;
11490;SDS011;5802;52.832;4.758;2023-03-20T08:42:46;2.33;;;1.20;;
11490;SDS011;5802;52.832;4.758;2023-03-20T08:45:14;2.60;;;1.23;;
11490;SDS011;5802;52.832;4.758;2023-03-20T08:47:41;4.03;;;1.25;;
11490;SDS011;5802;52.832;4.758;2023-03-20T08:50:08;3.42;;;1.30;;
11490;SDS011;5802;52.832;4.758;2023-03-20T08:52:36;5.45;;;1.42;;
11490;SDS011;5802;52.832;4.758;2023-03-20T08:55:08;3.53;;;1.38;;
11490;SDS011;5802;52.832;4.758;2023-03-20T08:57:35;3.67;;;1.35;;
11490;SDS011;5802;52.832;4.758;2023-03-20T09:00:01;3.28;;;1.55;;
11490;SDS011;5802;52.832;4.758;2023-03-20T09:02:30;2.15;;;1.02;;
11490;SDS011;5802;52.832;4.758;2023-03-20T09:04:56;3.42;;;1.42;;
11490;SDS011;5802;52.832;4.758;2023-03-20T09:07:23;3.67;;;1.33;;
11490;SDS011;5802;52.832;4.758;2023-03-20T09:09:50;3.47;;;1.38;;
11490;SDS011;5802;52.832;4.758;2023-03-20T09:12:16;4.45;;;1.40;;
11490;SDS011;5802;52.832;4.758;2023-03-20T09:14:43;4.18;;;1.30;;
11490;SDS011;5802;52.832;4.758;2023-03-20T09:17:10;4.10;;;1.30;;
11490;SDS011;5802;52.832;4.758;2023-03-20T09:19:38;2.78;;;1.20;;
11490;SDS011;5802;52.832;4.758;2023-03-20T09:22:08;3.20;;;1.35;;
11490;SDS011;5802;52.832;4.758;2023-03-20T09:24:36;3.47;;;1.27;;
11490;SDS011;5802;52.832;4.758;2023-03-20T09:27:03;3.75;;;1.20;;
11490;SDS011;5802;52.832;4.758;2023-03-20T09:29:29;3.10;;;1.38;;
11490;SDS011;5802;52.832;4.758;2023-03-20T09:31:56;2.15;;;1.05;;
11490;SDS011;5802;52.832;4.758;2023-03-20T09:34:23;4.60;;;1.30;;
11490;SDS011;5802;52.832;4.758;2023-03-20T09:36:51;3.55;;;1.30;;
11490;SDS011;5802;52.832;4.758;2023-03-20T09:39:17;4.38;;;1.35;;
11490;SDS011;5802;52.832;4.758;2023-03-20T09:41:45;4.47;;;1.60;;
11490;SDS011;5802;52.832;4.758;2023-03-20T09:44:15;4.63;;;1.50;;
11490;SDS011;5802;52.832;4.758;2023-03-20T09:46:59;3.05;;;1.42;;
11490;SDS011;5802;52.832;4.758;2023-03-20T09:49:38;1.45;;;0.90;;
11490;SDS011;5802;52.832;4.758;2023-03-20T09:52:14;3.78;;;1.52;;
11490;SDS011;5802;52.832;4.758;2023-03-20T09:54:46;3.53;;;1.30;;
11490;SDS011;5802;52.832;4.758;2023-03-20T09:57:16;4.03;;;1.40;;
11490;SDS011;5802;52.832;4.758;2023-03-20T09:59:47;4.45;;;1.48;;
11490;SDS011;5802;52.832;4.758;2023-03-20T10:02:16;4.68;;;1.35;;
11490;SDS011;5802;52.832;4.758;2023-03-20T10:04:48;5.13;;;1.65;;
11490;SDS011;5802;52.832;4.758;2023-03-20T10:07:19;2.95;;;1.50;;
11490;SDS011;5802;52.832;4.758;2023-03-20T10:09:46;5.20;;;1.30;;
11490;SDS011;5802;52.832;4.758;2023-03-20T10:12:21;2.50;;;1.33;;
11490;SDS011;5802;52.832;4.758;2023-03-20T10:14:57;3.70;;;1.50;;
11490;SDS011;5802;52.832;4.758;2023-03-20T10:17:38;3.30;;;1.60;;
11490;SDS011;5802;52.832;4.758;2023-03-20T10:20:13;7.72;;;1.50;;
11490;SDS011;5802;52.832;4.758;2023-03-20T10:22:52;3.17;;;1.30;;
11490;SDS011;5802;52.832;4.758;2023-03-20T10:25:23;3.67;;;1.33;;
11490;SDS011;5802;52.832;4.758;2023-03-20T10:27:55;5.80;;;1.60;;
11490;SDS011;5802;52.832;4.758;2023-03-20T10:30:35;8.07;;;1.40;;
11490;SDS011;5802;52.832;4.758;2023-03-20T10:33:16;5.45;;;1.98;;
11490;SDS011;5802;52.832;4.758;2023-03-20T10:35:52;4.63;;;1.60;;
11490;SDS011;5802;52.832;4.758;2023-03-20T10:38:30;4.13;;;1.58;;
11490;SDS011;5802;52.832;4.758;2023-03-20T10:41:07;5.00;;;1.55;;
11490;SDS011;5802;52.832;4.758;2023-03-20T10:43:38;6.03;;;1.98;;
11490;SDS011;5802;52.832;4.758;2023-03-20T10:46:07;7.65;;;2.55;;
11490;SDS011;5802;52.832;4.758;2023-03-20T10:48:39;9.38;;;2.97;;
11490;SDS011;5802;52.832;4.758;2023-03-20T10:51:10;10.32;;;3.17;;
11490;SDS011;5802;52.832;4.758;2023-03-20T10:53:42;9.68;;;4.75;;
11490;SDS011;5802;52.832;4.758;2023-03-20T10:56:13;15.30;;;6.65;;
11490;SDS011;5802;52.832;4.758;2023-03-20T10:58:43;30.48;;;8.15;;
11490;SDS011;5802;52.832;4.758;2023-03-20T11:01:13;22.25;;;8.27;;
11490;SDS011;5802;52.832;4.758;2023-03-20T11:03:40;25.70;;;7.55;;
11490;SDS011;5802;52.832;4.758;2023-03-20T11:06:10;18.13;;;7.07;;
11490;SDS011;5802;52.832;4.758;2023-03-20T11:08:45;23.27;;;7.50;;
11490;SDS011;5802;52.832;4.758;2023-03-20T11:11:20;22.35;;;7.28;;
11490;SDS011;5802;52.832;4.758;2023-03-20T11:13:48;17.90;;;7.40;;
11490;SDS011;5802;52.832;4.758;2023-03-20T11:16:19;16.05;;;6.55;;
11490;SDS011;5802;52.832;4.758;2023-03-20T11:18:47;19.90;;;6.32;;
11490;SDS011;5802;52.832;4.758;2023-03-20T11:21:20;15.82;;;6.18;;
11490;SDS011;5802;52.832;4.758;2023-03-20T11:23:50;15.65;;;6.03;;
11490;SDS011;5802;52.832;4.758;2023-03-20T11:26:17;14.15;;;5.70;;
11490;SDS011;5802;52.832;4.758;2023-03-20T11:28:53;12.63;;;4.97;;
11490;SDS011;5802;52.832;4.758;2023-03-20T11:31:23;14.77;;;4.82;;
11490;SDS011;5802;52.832;4.758;2023-03-20T11:33:59;10.90;;;4.75;;
11490;SDS011;5802;52.832;4.758;2023-03-20T11:36:36;12.77;;;5.07;;
11490;SDS011;5802;52.832;4.758;2023-03-20T11:39:09;11.85;;;4.97;;
11490;SDS011;5802;52.832;4.758;2023-03-20T11:41:41;14.05;;;4.93;;
11490;SDS011;5802;52.832;4.758;2023-03-20T11:44:19;10.48;;;4.75;;
11490;SDS011;5802;52.832;4.758;2023-03-20T11:46:53;13.57;;;4.63;;
11490;SDS011;5802;52.832;4.758;2023-03-20T11:49:22;11.73;;;4.18;;
11490;SDS011;5802;52.832;4.758;2023-03-20T11:51:51;13.60;;;4.50;;
11490;SDS011;5802;52.832;4.758;2023-03-20T11:54:22;12.57;;;3.95;;
11490;SDS011;5802;52.832;4.758;2023-03-20T11:56:50;13.30;;;3.78;;
11490;SDS011;5802;52.832;4.758;2023-03-20T11:59:18;14.35;;;4.32;;
11490;SDS011;5802;52.832;4.758;2023-03-20T12:01:46;10.85;;;4.10;;
11490;SDS011;5802;52.832;4.758;2023-03-20T12:04:15;10.45;;;3.67;;
11490;SDS011;5802;52.832;4.758;2023-03-20T12:06:45;8.75;;;3.30;;
11490;SDS011;5802;52.832;4.758;2023-03-20T12:09:21;6.88;;;3.28;;
11490;SDS011;5802;52.832;4.758;2023-03-20T12:11:59;9.35;;;3.42;;
11490;SDS011;5802;52.832;4.758;2023-03-20T12:14:30;9.32;;;3.67;;
11490;SDS011;5802;52.832;4.758;2023-03-20T12:17:13;11.55;;;3.70;;
11490;SDS011;5802;52.832;4.758;2023-03-20T12:19:49;6.20;;;3.00;;
11490;SDS011;5802;52.832;4.758;2023-03-20T12:22:22;6.57;;;3.35;;
11490;SDS011;5802;52.832;4.758;2023-03-20T12:24:54;6.10;;;2.95;;
11490;SDS011;5802;52.832;4.758;2023-03-20T12:27:26;7.05;;;2.70;;
11490;SDS011;5802;52.832;4.758;2023-03-20T12:29:59;9.73;;;2.95;;
11490;SDS011;5802;52.832;4.758;2023-03-20T12:32:29;9.05;;;2.67;;
11490;SDS011;5802;52.832;4.758;2023-03-20T12:35:02;8.00;;;2.60;;
11490;SDS011;5802;52.832;4.758;2023-03-20T12:37:35;8.65;;;2.80;;
11490;SDS011;5802;52.832;4.758;2023-03-20T12:40:04;6.05;;;2.88;;
11490;SDS011;5802;52.832;4.758;2023-03-20T12:42:38;6.20;;;2.58;;
11490;SDS011;5802;52.832;4.758;2023-03-20T12:45:15;14.30;;;3.70;;
11490;SDS011;5802;52.832;4.758;2023-03-20T12:50:51;7.65;;;2.40;;
11490;SDS011;5802;52.832;4.758;2023-03-20T12:53:25;5.43;;;2.53;;
11490;SDS011;5802;52.832;4.758;2023-03-20T12:56:05;6.60;;;2.53;;
11490;SDS011;5802;52.832;4.758;2023-03-20T12:58:42;5.18;;;2.60;;
11490;SDS011;5802;52.832;4.758;2023-03-20T13:01:13;5.68;;;2.30;;
11490;SDS011;5802;52.832;4.758;2023-03-20T13:03:51;12.43;;;2.95;;
11490;SDS011;5802;52.832;4.758;2023-03-20T13:06:28;7.90;;;2.42;;
11490;SDS011;5802;52.832;4.758;2023-03-20T13:09:11;5.82;;;2.33;;
11490;SDS011;5802;52.832;4.758;2023-03-20T13:11:52;5.05;;;2.67;;
11490;SDS011;5802;52.832;4.758;2023-03-20T13:14:25;4.78;;;2.20;;
11490;SDS011;5802;52.832;4.758;2023-03-20T13:17:00;5.75;;;1.90;;
11490;SDS011;5802;52.832;4.758;2023-03-20T13:19:35;3.45;;;1.90;;
11490;SDS011;5802;52.832;4.758;2023-03-20T13:22:07;4.88;;;2.05;;
11490;SDS011;5802;52.832;4.758;2023-03-20T13:24:43;3.03;;;1.70;;
11490;SDS011;5802;52.832;4.758;2023-03-20T13:27:17;5.65;;;2.15;;
11490;SDS011;5802;52.832;4.758;2023-03-20T13:29:56;4.47;;;2.08;;
11490;SDS011;5802;52.832;4.758;2023-03-20T13:32:29;3.60;;;2.00;;
11490;SDS011;5802;52.832;4.758;2023-03-20T13:35:22;3.05;;;1.95;;
11490;SDS011;5802;52.832;4.758;2023-03-20T13:37:58;5.53;;;1.70;;
11490;SDS011;5802;52.832;4.758;2023-03-20T13:40:29;6.10;;;1.88;;
11490;SDS011;5802;52.832;4.758;2023-03-20T13:43:03;4.03;;;1.90;;
11490;SDS011;5802;52.832;4.758;2023-03-20T13:45:39;3.80;;;1.80;;
11490;SDS011;5802;52.832;4.758;2023-03-20T13:48:11;3.97;;;1.75;;
11490;SDS011;5802;52.832;4.758;2023-03-20T13:50:48;2.85;;;1.63;;
11490;SDS011;5802;52.832;4.758;2023-03-20T13:53:24;4.05;;;1.90;;
11490;SDS011;5802;52.832;4.758;2023-03-20T13:55:58;3.33;;;1.90;;
11490;SDS011;5802;52.832;4.758;2023-03-20T13:58:40;3.17;;;1.55;;
11490;SDS011;5802;52.832;4.758;2023-03-20T14:01:16;2.17;;;1.48;;
11490;SDS011;5802;52.832;4.758;2023-03-20T14:03:49;3.88;;;1.65;;
11490;SDS011;5802;52.832;4.758;2023-03-20T14:06:25;3.45;;;1.88;;
11490;SDS011;5802;52.832;4.758;2023-03-20T14:09:23;2.40;;;1.73;;
11490;SDS011;5802;52.832;4.758;2023-03-20T14:11:51;3.45;;;1.85;;
11490;SDS011;5802;52.832;4.758;2023-03-20T14:14:23;3.13;;;1.70;;
11490;SDS011;5802;52.832;4.758;2023-03-20T14:17:02;4.93;;;1.70;;
11490;SDS011;5802;52.832;4.758;2023-03-20T14:19:34;10.88;;;2.05;;
11490;SDS011;5802;52.832;4.758;2023-03-20T14:22:04;4.35;;;1.95;;
11490;SDS011;5802;52.832;4.758;2023-03-20T14:24:33;3.83;;;1.70;;
11490;SDS011;5802;52.832;4.758;2023-03-20T14:27:02;4.65;;;1.80;;
11490;SDS011;5802;52.832;4.758;2023-03-20T14:29:30;4.20;;;1.73;;
11490;SDS011;5802;52.832;4.758;2023-03-20T14:34:59;2.90;;;1.42;;
11490;SDS011;5802;52.832;4.758;2023-03-20T14:37:53;4.78;;;1.77;;
11490;SDS011;5802;52.832;4.758;2023-03-20T14:40:44;3.92;;;1.40;;
11490;SDS011;5802;52.832;4.758;2023-03-20T14:43:19;6.95;;;1.60;;
11490;SDS011;5802;52.832;4.758;2023-03-20T14:45:56;8.65;;;1.77;;
11490;SDS011;5802;52.832;4.758;2023-03-20T14:48:29;4.43;;;1.65;;
11490;SDS011;5802;52.832;4.758;2023-03-20T14:51:06;7.05;;;1.80;;
11490;SDS011;5802;52.832;4.758;2023-03-20T14:53:48;2.10;;;1.20;;
11490;SDS011;5802;52.832;4.758;2023-03-20T14:56:21;4.45;;;1.50;;
11490;SDS011;5802;52.832;4.758;2023-03-20T14:58:54;4.53;;;1.70;;
11490;SDS011;5802;52.832;4.758;2023-03-20T15:01:24;8.55;;;2.08;;
11490;SDS011;5802;52.832;4.758;2023-03-20T15:03:55;8.02;;;1.73;;
11490;SDS011;5802;52.832;4.758;2023-03-20T15:06:24;7.47;;;1.60;;
11490;SDS011;5802;52.832;4.758;2023-03-20T15:08:54;5.88;;;1.40;;
11490;SDS011;5802;52.832;4.758;2023-03-20T15:11:24;2.97;;;1.92;;
11490;SDS011;5802;52.832;4.758;2023-03-20T15:13:51;8.18;;;2.83;;
11490;SDS011;5802;52.832;4.758;2023-03-20T15:16:24;6.53;;;2.50;;
11490;SDS011;5802;52.832;4.758;2023-03-20T15:18:53;7.00;;;3.00;;
11490;SDS011;5802;52.832;4.758;2023-03-20T15:21:22;4.20;;;2.80;;
11490;SDS011;5802;52.832;4.758;2023-03-20T15:23:56;3.58;;;2.60;;
11490;SDS011;5802;52.832;4.758;2023-03-20T15:26:23;5.28;;;2.50;;
11490;SDS011;5802;52.832;4.758;2023-03-20T15:28:53;4.25;;;2.25;;
11490;SDS011;5802;52.832;4.758;2023-03-20T15:31:25;5.60;;;2.28;;